Time;durP1;ratioP1;P1;durP2;ratioP2;P2;SDS_P1;SDS_P2;PMS_P1;PMS_P2;Temp;Humidity;BMP_temperature;BMP_pressure;BME280_temperature;BME280_humidity;BME280_pressure;Samples;Min_cycle;Max_cycle;Signal;HPM_P1;HPM_P2
2023/06/07 00:00:28;;;;;;;4.67;4.20;;;18.90;99.90;;;;;;5113787;28;20198;-78
2023/06/07 00:02:56;;;;;;;7.17;4.17;;;18.90;99.90;;;;;;5095765;28;20952;-76
2023/06/07 00:05:22;;;;;;;5.30;4.80;;;18.90;99.90;;;;;;5113711;28;20426;-78
2023/06/07 00:07:48;;;;;;;5.37;4.87;;;18.90;99.90;;;;;;5113597;28;20445;-76
2023/06/07 00:10:14;;;;;;;5.33;4.83;;;18.90;99.90;;;;;;5095472;28;20502;-79
2023/06/07 00:12:40;;;;;;;6.73;4.80;;;18.90;99.90;;;;;;5113941;28;20582;-78
2023/06/07 00:15:07;;;;;;;5.33;4.83;;;18.90;99.90;;;;;;5095435;28;20205;-76
2023/06/07 00:17:33;;;;;;;5.43;4.30;;;18.80;99.90;;;;;;5113586;28;20466;-76
2023/06/07 00:20:00;;;;;;;5.50;4.60;;;18.80;99.90;;;;;;5113593;28;20465;-76
2023/06/07 00:22:26;;;;;;;5.03;4.43;;;18.80;99.90;;;;;;5095406;28;20445;-76
2023/06/07 00:24:52;;;;;;;7.37;5.37;;;18.70;99.90;;;;;;5113987;28;20475;-76
2023/06/07 00:27:18;;;;;;;5.93;4.80;;;18.70;99.90;;;;;;5113669;28;20676;-76
2023/06/07 00:29:44;;;;;;;5.70;4.70;;;18.70;99.90;;;;;;5115536;28;20444;-76
2023/06/07 00:32:10;;;;;;;5.57;4.90;;;18.70;99.90;;;;;;5117243;28;20392;-76
2023/06/07 00:34:36;;;;;;;5.10;4.60;;;18.60;99.90;;;;;;5117472;28;20223;-78
2023/06/07 00:37:02;;;;;;;8.33;5.67;;;18.60;99.90;;;;;;5098751;28;20883;-78
2023/06/07 00:39:28;;;;;;;6.10;5.50;;;18.60;99.90;;;;;;5116946;28;20268;-78
2023/06/07 00:41:53;;;;;;;6.03;5.17;;;18.60;99.90;;;;;;5117113;28;20628;-76
2023/06/07 00:44:19;;;;;;;5.07;4.53;;;18.60;99.90;;;;;;5117304;28;20424;-78
2023/06/07 00:46:45;;;;;;;6.47;5.47;;;18.50;99.90;;;;;;5098610;28;20579;-76
2023/06/07 00:49:16;;;;;;;7.17;5.30;;;18.50;99.90;;;;;;5098651;28;20181;-78
2023/06/07 00:51:43;;;;;;;6.67;4.83;;;18.50;99.90;;;;;;5098628;28;20196;-78
2023/06/07 00:54:08;;;;;;;7.23;5.40;;;18.50;99.90;;;;;;5116618;28;20417;-76
2023/06/07 00:56:35;;;;;;;10.60;7.33;;;18.50;99.90;;;;;;5116690;28;20430;-76
2023/06/07 00:59:02;;;;;;;5.97;5.40;;;18.50;99.90;;;;;;5116912;28;20614;-76
2023/06/07 01:01:27;;;;;;;8.83;5.50;;;18.50;99.90;;;;;;5116580;28;20417;-76
2023/06/07 01:03:53;;;;;;;5.40;4.60;;;18.40;99.90;;;;;;5116767;28;20912;-78
2023/06/07 01:06:22;;;;;;;6.37;5.13;;;18.40;99.90;;;;;;5116528;28;20729;-78
2023/06/07 01:08:50;;;;;;;6.80;5.00;;;18.40;99.90;;;;;;5116689;28;20421;-78
2023/06/07 01:11:18;;;;;;;7.93;5.13;;;18.40;99.90;;;;;;5098096;28;20430;-76
2023/06/07 01:13:43;;;;;;;6.63;5.30;;;18.40;99.90;;;;;;5098078;28;20469;-78
2023/06/07 01:16:09;;;;;;;6.40;5.10;;;18.30;99.90;;;;;;5116302;28;20433;-76
2023/06/07 01:18:37;;;;;;;6.00;5.03;;;18.20;99.90;;;;;;5098005;28;20222;-76
2023/06/07 01:21:05;;;;;;;7.70;6.10;;;18.20;99.90;;;;;;5094295;28;20232;-78
2023/06/07 01:23:34;;;;;;;8.27;5.77;;;18.20;99.90;;;;;;5094635;28;21002;-79
2023/06/07 01:26:01;;;;;;;6.60;5.77;;;18.20;99.90;;;;;;5095749;28;20423;-76
2023/06/07 01:28:30;;;;;;;6.20;5.60;;;18.10;99.90;;;;;;5095893;28;21001;-76
2023/06/07 01:30:57;;;;;;;7.23;5.90;;;18.10;99.90;;;;;;5094386;28;20426;-78
2023/06/07 01:33:24;;;;;;;6.53;5.83;;;18.10;99.90;;;;;;5095702;28;20423;-78
2023/06/07 01:35:52;;;;;;;8.97;5.50;;;18.10;99.90;;;;;;5094209;28;20468;-78
2023/06/07 01:38:19;;;;;;;5.73;5.23;;;18.10;99.90;;;;;;5095394;28;20888;-78
2023/06/07 01:40:46;;;;;;;6.70;5.60;;;18.00;99.90;;;;;;5095293;28;20966;-76
2023/06/07 01:43:12;;;;;;;7.90;6.37;;;18.00;99.90;;;;;;5094108;28;20423;-78
2023/06/07 01:45:38;;;;;;;8.43;6.87;;;18.00;99.90;;;;;;5095436;28;20762;-78
2023/06/07 01:48:05;;;;;;;6.67;5.97;;;18.00;99.90;;;;;;5095410;28;20413;-78
2023/06/07 01:50:31;;;;;;;7.40;6.03;;;17.90;99.90;;;;;;5095229;28;20790;-76
2023/06/07 01:52:56;;;;;;;7.63;6.87;;;17.90;99.90;;;;;;5095187;28;20398;-76
2023/06/07 01:55:24;;;;;;;7.70;6.23;;;17.90;99.90;;;;;;5095046;28;20422;-78
2023/06/07 01:58:13;;;;;;;7.57;6.77;;;17.80;99.90;;;;;;5095053;28;20549;-75
2023/06/07 02:01:06;;;;;;;7.07;6.33;;;17.80;99.90;;;;;;5095038;28;20426;-76
2023/06/07 02:03:41;;;;;;;8.03;6.23;;;17.70;99.90;;;;;;5093823;28;20961;-76
2023/06/07 02:06:11;;;;;;;7.20;6.50;;;17.70;99.90;;;;;;5094988;28;20439;-76
2023/06/07 02:08:45;;;;;;;8.53;7.10;;;17.70;99.90;;;;;;5095368;28;20508;-76
2023/06/07 02:11:13;;;;;;;10.63;7.13;;;17.70;99.90;;;;;;5093495;28;20421;-75
2023/06/07 02:13:41;;;;;;;7.60;6.80;;;17.70;99.90;;;;;;5095057;28;20916;-78
2023/06/07 02:16:07;;;;;;;12.03;7.33;;;17.70;99.90;;;;;;5093419;28;20470;-76
2023/06/07 02:18:37;;;;;;;9.30;7.03;;;17.70;99.90;;;;;;5093397;28;20981;-78
2023/06/07 02:21:03;;;;;;;8.00;6.67;;;17.70;99.90;;;;;;5108534;28;20457;-78
2023/06/07 02:23:29;;;;;;;7.77;6.63;;;17.60;99.90;;;;;;5096748;28;20522;-76
2023/06/07 02:25:54;;;;;;;7.00;6.30;;;17.60;99.90;;;;;;5096656;28;20785;-76
2023/06/07 02:28:20;;;;;;;7.97;6.63;;;17.60;99.90;;;;;;5096966;28;20427;-78
2023/06/07 02:30:46;;;;;;;11.13;7.60;;;17.60;99.90;;;;;;5114837;28;20589;-75
2023/06/07 02:33:13;;;;;;;7.13;6.43;;;17.60;99.90;;;;;;5096886;28;20187;-76
2023/06/07 02:35:44;;;;;;;7.40;6.60;;;17.60;99.90;;;;;;5114859;28;20416;-76
2023/06/07 02:38:10;;;;;;;7.47;6.73;;;17.60;99.90;;;;;;5114819;28;20476;-78
2023/06/07 02:40:35;;;;;;;7.93;6.53;;;17.60;99.90;;;;;;5096489;28;21028;-76
2023/06/07 02:43:01;;;;;;;8.40;7.50;;;17.60;99.90;;;;;;5096278;28;20174;-78
2023/06/07 02:45:27;;;;;;;10.37;7.80;;;17.60;99.90;;;;;;5096337;28;20244;-78
2023/06/07 02:47:54;;;;;;;7.17;6.37;;;17.60;99.90;;;;;;5114544;28;20164;-76
2023/06/07 02:50:21;;;;;;;8.57;6.53;;;17.60;99.90;;;;;;5096602;28;20304;-78
2023/06/07 02:52:47;;;;;;;8.03;6.90;;;17.60;99.90;;;;;;5095725;28;20404;-78
2023/06/07 02:55:13;;;;;;;7.20;6.47;;;17.50;99.90;;;;;;5114488;28;20428;-76
2023/06/07 02:57:40;;;;;;;9.10;7.40;;;17.60;99.90;;;;;;5114386;28;20478;-75
2023/06/07 03:00:11;;;;;;;7.47;6.40;;;17.60;99.90;;;;;;5114756;28;20544;-78
2023/06/07 03:02:38;;;;;;;8.00;7.20;;;17.60;99.90;;;;;;5096244;28;20783;-78
2023/06/07 03:05:05;;;;;;;6.87;6.20;;;17.60;99.90;;;;;;5096220;28;20530;-76
2023/06/07 03:07:32;;;;;;;7.70;6.70;;;17.50;99.90;;;;;;5095939;28;20458;-75
2023/06/07 03:09:58;;;;;;;10.00;6.77;;;17.50;99.90;;;;;;5114185;28;20441;-78
2023/06/07 03:12:24;;;;;;;7.83;7.13;;;17.50;99.90;;;;;;5096009;28;20955;-76
2023/06/07 03:14:50;;;;;;;9.63;7.10;;;17.50;99.90;;;;;;5114612;28;20432;-76
2023/06/07 03:17:17;;;;;;;8.03;6.87;;;17.60;99.90;;;;;;5095909;28;20969;-78
2023/06/07 03:19:43;;;;;;;8.30;7.40;;;17.70;99.90;;;;;;5114328;28;20744;-76
2023/06/07 03:22:08;;;;;;;8.90;7.20;;;17.80;99.90;;;;;;5114141;28;20757;-76
2023/06/07 03:24:36;;;;;;;11.17;7.13;;;17.80;99.90;;;;;;5114509;28;20412;-78
2023/06/07 03:27:03;;;;;;;7.53;6.60;;;17.90;99.90;;;;;;5095886;28;20392;-78
2023/06/07 03:29:30;;;;;;;9.70;7.20;;;17.90;99.90;;;;;;5095940;28;20932;-78
2023/06/07 03:31:56;;;;;;;8.73;6.90;;;17.90;99.90;;;;;;5114017;28;20417;-78
2023/06/07 03:34:22;;;;;;;7.43;6.73;;;18.00;99.90;;;;;;5114382;28;20508;-78
2023/06/07 03:36:48;;;;;;;9.97;6.30;;;18.00;99.90;;;;;;5095612;28;20903;-75
2023/06/07 03:39:14;;;;;;;12.80;7.70;;;18.10;99.90;;;;;;5095670;28;20420;-76
2023/06/07 03:41:39;;;;;;;7.90;7.10;;;18.10;99.90;;;;;;5095747;28;20432;-78
2023/06/07 03:44:05;;;;;;;8.37;6.80;;;18.20;99.90;;;;;;5114336;28;20219;-78
2023/06/07 03:46:31;;;;;;;9.63;6.30;;;18.20;99.90;;;;;;5113934;28;20199;-76
2023/06/07 03:48:56;;;;;;;10.73;6.83;;;18.20;99.90;;;;;;5095742;28;20185;-78
2023/06/07 03:51:22;;;;;;;7.57;6.47;;;18.30;99.90;;;;;;5113875;28;20188;-79
2023/06/07 03:53:47;;;;;;;9.43;6.10;;;18.30;99.90;;;;;;5095670;28;20181;-77
2023/06/07 03:56:14;;;;;;;8.83;7.37;;;18.30;99.90;;;;;;5113891;28;20189;-75
2023/06/07 03:58:40;;;;;;;8.23;7.43;;;18.30;99.90;;;;;;5113923;28;20224;-76
2023/06/07 04:01:05;;;;;;;9.73;8.33;;;18.20;99.90;;;;;;5095459;28;20428;-76
2023/06/07 04:03:31;;;;;;;12.00;6.97;;;18.20;99.90;;;;;;5113938;28;20643;-76
2023/06/07 04:05:57;;;;;;;10.40;7.00;;;18.10;99.90;;;;;;5117103;28;20329;-78
2023/06/07 04:08:23;;;;;;;7.67;6.87;;;18.20;99.90;;;;;;5117927;28;20189;-76
2023/06/07 04:10:52;;;;;;;7.07;6.07;;;18.20;99.90;;;;;;5099215;28;20428;-76
2023/06/07 04:13:18;;;;;;;11.60;7.77;;;18.30;99.90;;;;;;5117133;28;20428;-76
2023/06/07 04:15:45;;;;;;;7.70;6.90;;;18.40;99.90;;;;;;5099360;28;20428;-76
2023/06/07 04:18:10;;;;;;;159.70;92.63;;;18.50;99.90;;;;;;5116600;28;20518;-79
2023/06/07 04:20:36;;;;;;;9.37;6.67;;;18.50;99.90;;;;;;5092712;28;20973;-76
2023/06/07 04:23:02;;;;;;;8.60;7.70;;;18.50;99.90;;;;;;5094351;28;20183;-78
2023/06/07 04:25:32;;;;;;;8.03;7.13;;;18.50;99.90;;;;;;5096753;28;20219;-76
2023/06/07 04:28:00;;;;;;;8.87;7.33;;;18.50;99.90;;;;;;5096702;28;20270;-78
2023/06/07 04:30:34;;;;;;;10.67;7.33;;;18.60;99.90;;;;;;5101860;28;20450;-76
2023/06/07 04:33:09;;;;;;;9.87;7.37;;;18.60;99.90;;;;;;5105352;28;20436;-78
2023/06/07 04:35:41;;;;;;;9.43;7.80;;;18.60;99.90;;;;;;5087762;28;20511;-76
2023/06/07 04:38:07;;;;;;;8.30;7.47;;;18.60;99.90;;;;;;5128376;27;20486;-76
2023/06/07 04:40:41;;;;;;;7.83;7.03;;;18.60;99.90;;;;;;5088401;28;20950;-76
2023/06/07 04:43:08;;;;;;;10.30;6.93;;;18.60;99.90;;;;;;5092472;28;20427;-76
2023/06/07 04:45:40;;;;;;;11.43;7.37;;;18.60;99.90;;;;;;5093893;28;20434;-76
2023/06/07 04:48:11;;;;;;;8.03;6.97;;;18.60;99.90;;;;;;5083768;28;20996;-77
2023/06/07 04:50:41;;;;;;;10.33;7.40;;;18.60;99.90;;;;;;5088186;28;20536;-76
2023/06/07 04:53:08;;;;;;;8.43;7.33;;;18.60;99.90;;;;;;5083287;28;20832;-79
2023/06/07 04:55:38;;;;;;;20.57;12.27;;;18.60;99.90;;;;;;5090860;28;20539;-76
2023/06/07 04:58:06;;;;;;;28.77;20.23;;;18.60;99.90;;;;;;5087118;28;20479;-75
2023/06/07 05:00:33;;;;;;;10.33;8.30;;;18.60;99.90;;;;;;5083827;28;20427;-79
2023/06/07 05:03:06;;;;;;;9.27;6.83;;;18.60;99.90;;;;;;5083464;28;20783;-79
2023/06/07 05:05:33;;;;;;;9.80;7.70;;;18.60;99.90;;;;;;5094039;28;20966;-75
2023/06/07 05:07:58;;;;;;;8.93;8.00;;;18.60;99.90;;;;;;5094429;28;20769;-79
2023/06/07 05:10:24;;;;;;;10.63;7.60;;;18.60;99.90;;;;;;5090749;28;20430;-78
2023/06/07 05:12:50;;;;;;;9.00;6.87;;;18.70;99.90;;;;;;5092174;28;20587;-75
2023/06/07 05:15:15;;;;;;;10.63;8.37;;;18.70;99.90;;;;;;5089381;28;20282;-78
2023/06/07 05:17:41;;;;;;;8.80;7.90;;;18.70;99.90;;;;;;5078370;28;20629;-76
2023/06/07 05:20:10;;;;;;;9.80;8.80;;;18.70;99.90;;;;;;5096654;28;20244;-76
2023/06/07 05:22:39;;;;;;;9.93;7.90;;;18.70;99.90;;;;;;5108846;28;20198;-76
2023/06/07 05:25:06;;;;;;;10.20;8.00;;;18.70;99.90;;;;;;5115930;28;20542;-78
2023/06/07 05:27:32;;;;;;;9.83;8.93;;;18.70;99.90;;;;;;5114510;28;20484;-76
2023/06/07 05:29:58;;;;;;;10.93;8.63;;;18.80;99.90;;;;;;5119188;27;20454;-79
2023/06/07 05:32:24;;;;;;;10.13;9.13;;;18.80;99.90;;;;;;5114021;27;20419;-78
2023/06/07 05:34:51;;;;;;;13.53;10.07;;;18.90;99.90;;;;;;5115868;28;20196;-79
2023/06/07 05:37:18;;;;;;;17.13;10.43;;;19.00;99.90;;;;;;5095180;28;20765;-79
2023/06/07 05:39:45;;;;;;;12.70;10.37;;;19.10;99.90;;;;;;5134410;27;20425;-79
2023/06/07 05:42:11;;;;;;;10.23;8.37;;;19.10;99.90;;;;;;5111853;28;20425;-79
2023/06/07 05:44:37;;;;;;;13.97;9.30;;;19.10;99.90;;;;;;5113337;28;20431;-79
2023/06/07 05:47:03;;;;;;;13.20;9.40;;;19.10;99.90;;;;;;5106627;28;20435;-79
2023/06/07 05:49:29;;;;;;;12.73;9.17;;;19.20;99.90;;;;;;5094432;28;20551;-76
2023/06/07 05:51:54;;;;;;;10.53;9.03;;;19.20;99.90;;;;;;5092822;28;20438;-79
2023/06/07 05:54:21;;;;;;;14.27;9.90;;;19.30;99.90;;;;;;5110842;28;20952;-79
2023/06/07 05:56:46;;;;;;;12.17;10.00;;;19.40;99.90;;;;;;5094460;28;20199;-76
2023/06/07 05:59:12;;;;;;;13.97;9.80;;;19.40;99.90;;;;;;5094972;28;20438;-78
2023/06/07 06:01:37;;;;;;;13.10;9.90;;;19.50;99.90;;;;;;5092998;28;20617;-79
2023/06/07 06:04:03;;;;;;;14.83;10.03;;;19.60;99.90;;;;;;5088948;27;20193;-79
2023/06/07 06:06:29;;;;;;;12.47;9.23;;;19.70;99.90;;;;;;5119274;27;20568;-79
2023/06/07 06:08:55;;;;;;;16.87;10.40;;;19.80;99.90;;;;;;5133323;27;20257;-76
2023/06/07 06:11:20;;;;;;;14.70;11.40;;;19.80;99.90;;;;;;5124642;27;20253;-76
2023/06/07 06:13:48;;;;;;;11.87;10.00;;;19.90;99.90;;;;;;5122400;27;20632;-79
2023/06/07 06:16:14;;;;;;;11.10;9.70;;;20.00;99.90;;;;;;5108994;28;20204;-78
2023/06/07 06:18:43;;;;;;;13.50;9.93;;;20.00;99.90;;;;;;5111964;28;21108;-76
2023/06/07 06:21:08;;;;;;;13.43;10.33;;;20.10;99.90;;;;;;5106754;28;20312;-79
2023/06/07 06:23:35;;;;;;;14.30;11.10;;;20.20;99.90;;;;;;5107154;27;20420;-79
2023/06/07 06:26:01;;;;;;;13.30;10.83;;;20.30;99.90;;;;;;5104465;28;20199;-77
2023/06/07 06:28:28;;;;;;;15.20;11.63;;;20.40;99.90;;;;;;5111965;27;20424;-77
2023/06/07 06:30:54;;;;;;;12.50;9.83;;;20.40;99.90;;;;;;5111610;27;20199;-79
2023/06/07 06:33:20;;;;;;;161.40;90.63;;;20.50;99.90;;;;;;5106460;28;20431;-79
2023/06/07 06:35:46;;;;;;;17.20;12.20;;;20.60;99.90;;;;;;5118620;27;20540;-77
2023/06/07 06:38:12;;;;;;;13.00;10.50;;;20.70;99.90;;;;;;5096749;28;20262;-79
2023/06/07 06:40:38;;;;;;;12.50;9.70;;;20.80;99.90;;;;;;5102239;28;20487;-77
2023/06/07 06:43:04;;;;;;;13.83;10.13;;;20.90;99.90;;;;;;5116518;27;20981;-77
2023/06/07 06:45:29;;;;;;;13.73;9.57;;;21.00;99.90;;;;;;5118714;27;20215;-77
2023/06/07 06:47:55;;;;;;;10.97;9.07;;;21.10;99.90;;;;;;5108877;28;20240;-79
2023/06/07 06:50:21;;;;;;;18.23;9.23;;;21.20;99.90;;;;;;5126927;27;20707;-80
2023/06/07 06:52:46;;;;;;;11.47;9.00;;;21.30;99.90;;;;;;5108973;27;20175;-77
2023/06/07 06:55:12;;;;;;;12.33;10.33;;;21.40;99.90;;;;;;5108628;27;20224;-76
2023/06/07 06:57:37;;;;;;;14.90;10.03;;;21.50;99.90;;;;;;5087038;28;20208;-79
2023/06/07 07:00:06;;;;;;;12.60;10.50;;;21.50;99.90;;;;;;5113704;27;20199;-79
2023/06/07 07:02:32;;;;;;;12.50;9.13;;;21.50;99.90;;;;;;5100773;28;20176;-79
2023/06/07 07:04:58;;;;;;;13.43;9.77;;;21.50;99.90;;;;;;5087501;28;20443;-76
2023/06/07 07:07:23;;;;;;;13.10;10.03;;;21.60;99.90;;;;;;5103218;28;20194;-76
2023/06/07 07:09:49;;;;;;;12.83;9.60;;;21.60;99.90;;;;;;5088098;28;20586;-76
2023/06/07 07:12:16;;;;;;;10.57;9.53;;;21.70;99.90;;;;;;5088221;28;20190;-79
2023/06/07 07:14:41;;;;;;;11.73;9.00;;;21.80;99.90;;;;;;5088463;28;20184;-79
2023/06/07 07:17:07;;;;;;;13.00;10.00;;;21.90;99.90;;;;;;5102389;28;21017;-76
2023/06/07 07:19:33;;;;;;;14.33;10.27;;;21.90;99.90;;;;;;5121792;27;20189;-79
2023/06/07 07:21:58;;;;;;;12.90;10.47;;;22.00;99.90;;;;;;5118126;28;20183;-80
2023/06/07 07:24:24;;;;;;;12.77;10.50;;;22.10;99.90;;;;;;5108057;28;20240;-79
2023/06/07 07:26:51;;;;;;;14.57;11.90;;;22.10;99.90;;;;;;5108650;28;20680;-78
2023/06/07 07:29:16;;;;;;;13.80;11.83;;;22.10;99.90;;;;;;5103005;28;20183;-79
2023/06/07 07:31:42;;;;;;;13.07;11.13;;;22.10;99.90;;;;;;5113090;28;20628;-79
2023/06/07 07:34:10;;;;;;;13.27;10.63;;;22.00;99.90;;;;;;5117960;28;20534;-78
2023/06/07 07:36:37;;;;;;;14.03;12.43;;;22.10;99.90;;;;;;5101375;28;20436;-79
2023/06/07 07:39:06;;;;;;;13.73;12.33;;;22.00;99.90;;;;;;5120629;27;20828;-79
2023/06/07 07:41:32;;;;;;;18.77;12.83;;;22.00;99.90;;;;;;5113865;28;20447;-76
2023/06/07 07:43:58;;;;;;;14.07;12.40;;;22.10;99.90;;;;;;5114450;28;20415;-79
2023/06/07 07:46:24;;;;;;;13.37;11.90;;;22.00;99.90;;;;;;5114731;28;20416;-79
2023/06/07 07:48:49;;;;;;;13.80;12.40;;;22.10;99.90;;;;;;5113857;27;20187;-79
2023/06/07 07:51:15;;;;;;;13.50;11.70;;;22.10;99.90;;;;;;5114799;28;20208;-76
2023/06/07 07:53:44;;;;;;;13.57;11.43;;;22.20;99.90;;;;;;5113531;28;20239;-79
2023/06/07 07:56:10;;;;;;;15.90;14.33;;;22.20;99.90;;;;;;5097131;28;20287;-79
2023/06/07 07:58:36;;;;;;;17.47;14.50;;;22.30;99.90;;;;;;5114911;27;20566;-76
2023/06/07 08:01:02;;;;;;;16.50;14.87;;;22.30;99.90;;;;;;5134454;27;20208;-79
2023/06/07 08:03:29;;;;;;;17.27;15.47;;;22.40;99.90;;;;;;5100303;28;20436;-77
2023/06/07 08:05:55;;;;;;;15.90;14.27;;;22.40;99.90;;;;;;5106570;28;20967;-79
2023/06/07 08:08:21;;;;;;;16.40;14.70;;;22.50;99.90;;;;;;5114266;27;20420;-76
2023/06/07 08:10:47;;;;;;;21.00;18.10;;;22.60;99.90;;;;;;5113994;28;20429;-79
2023/06/07 08:13:14;;;;;;;21.27;19.17;;;22.60;99.90;;;;;;5124414;27;20674;-76
2023/06/07 08:15:39;;;;;;;20.90;18.60;;;22.70;99.90;;;;;;5127367;27;20826;-80
2023/06/07 08:18:05;;;;;;;19.00;17.20;;;22.70;99.90;;;;;;5097985;28;20471;-77
2023/06/07 08:20:31;;;;;;;20.77;18.67;;;22.70;99.90;;;;;;5099360;27;20232;-76
2023/06/07 08:22:56;;;;;;;20.47;18.37;;;22.60;99.90;;;;;;5130612;27;20171;-76
2023/06/07 08:25:22;;;;;;;20.20;18.30;;;22.60;99.90;;;;;;5088451;28;20488;-79
2023/06/07 08:27:48;;;;;;;21.30;19.17;;;22.60;99.90;;;;;;5089095;28;20181;-78
2023/06/07 08:30:14;;;;;;;18.87;17.07;;;22.70;99.90;;;;;;5090008;28;20205;-76
2023/06/07 08:32:41;;;;;;;21.37;18.90;;;22.80;99.90;;;;;;5091235;28;20974;-79
2023/06/07 08:35:07;;;;;;;19.33;17.43;;;23.00;99.90;;;;;;5110710;28;20201;-79
2023/06/07 08:37:33;;;;;;;20.40;18.23;;;23.10;99.90;;;;;;5109188;28;20927;-77
2023/06/07 08:39:59;;;;;;;18.87;16.97;;;23.20;99.90;;;;;;5111561;28;20545;-76
2023/06/07 08:42:25;;;;;;;19.33;17.30;;;23.20;99.90;;;;;;5091538;28;20206;-76
2023/06/07 08:44:51;;;;;;;20.30;18.37;;;23.30;99.90;;;;;;5128681;27;20209;-77
2023/06/07 08:47:20;;;;;;;21.63;19.50;;;23.40;99.90;;;;;;5112931;28;20190;-79
2023/06/07 08:49:48;;;;;;;19.83;17.83;;;23.40;99.90;;;;;;5091607;28;20419;-79
2023/06/07 08:52:15;;;;;;;20.07;18.17;;;23.50;99.90;;;;;;5072039;28;20923;-79
2023/06/07 08:54:43;;;;;;;20.20;18.20;;;23.60;99.90;;;;;;5089937;28;20449;-79
2023/06/07 08:57:10;;;;;;;20.17;18.27;;;23.50;99.90;;;;;;5091586;28;20859;-76
2023/06/07 08:59:37;;;;;;;20.90;18.90;;;23.50;99.90;;;;;;5055772;28;20565;-77
2023/06/07 09:02:04;;;;;;;18.20;16.40;;;23.60;99.90;;;;;;5093670;28;20898;-76
2023/06/07 09:04:29;;;;;;;21.60;19.73;;;23.60;99.90;;;;;;5110822;28;20448;-77
2023/06/07 09:06:55;;;;;;;21.87;19.80;;;23.50;99.90;;;;;;5113387;28;20409;-76
2023/06/07 09:09:21;;;;;;;21.47;19.57;;;23.50;99.90;;;;;;5103725;28;20690;-76
2023/06/07 09:11:52;;;;;;;22.40;20.20;;;23.50;99.90;;;;;;5077361;28;20458;-76
2023/06/07 09:14:18;;;;;;;23.77;20.93;;;23.50;99.90;;;;;;5106482;28;20830;-77
2023/06/07 09:16:57;;;;;;;21.17;19.27;;;23.60;99.90;;;;;;5113211;28;20439;-79
2023/06/07 09:19:37;;;;;;;22.13;20.03;;;23.70;99.90;;;;;;5094457;28;20726;-76
2023/06/07 09:22:05;;;;;;;20.67;18.57;;;23.80;99.90;;;;;;5113335;28;20434;-79
2023/06/07 09:24:32;;;;;;;18.67;16.90;;;23.80;99.90;;;;;;5112814;28;20427;-79
2023/06/07 09:27:00;;;;;;;15.77;14.37;;;23.80;99.90;;;;;;5112448;28;20403;-76
2023/06/07 09:29:28;;;;;;;21.23;19.33;;;23.80;99.90;;;;;;5099262;27;20830;-80
2023/06/07 09:32:15;;;;;;;21.10;19.00;;;23.80;99.90;;;;;;5108599;27;20426;-79
2023/06/07 09:34:40;;;;;;;22.53;20.23;;;23.90;99.90;;;;;;5110083;27;20875;-77
2023/06/07 09:37:06;;;;;;;21.83;19.77;;;23.90;99.90;;;;;;5105720;28;20494;-79
2023/06/07 09:39:32;;;;;;;22.93;20.93;;;23.90;99.90;;;;;;5101096;28;20202;-76
2023/06/07 09:41:58;;;;;;;23.27;21.07;;;23.80;99.90;;;;;;5077334;28;20175;-79
2023/06/07 09:44:26;;;;;;;25.50;23.07;;;23.80;99.90;;;;;;5079566;28;20817;-77
2023/06/07 09:46:52;;;;;;;20.50;18.43;;;23.80;99.90;;;;;;5101672;28;20605;-76
2023/06/07 09:49:28;;;;;;;23.40;21.10;;;23.70;99.90;;;;;;5110492;28;20433;-76
2023/06/07 09:51:54;;;;;;;26.37;23.77;;;23.70;99.90;;;;;;5107949;28;20535;-76
2023/06/07 09:54:41;;;;;;;28.60;25.80;;;23.60;99.90;;;;;;5083288;28;20704;-77
2023/06/07 09:57:11;;;;;;;31.87;28.20;;;23.50;99.90;;;;;;5112051;28;20480;-79
2023/06/07 09:59:38;;;;;;;36.07;32.27;;;23.40;99.90;;;;;;5112976;27;20937;-79
2023/06/07 10:02:24;;;;;;;38.30;33.57;;;23.30;99.90;;;;;;5120099;27;20450;-80
2023/06/07 10:04:53;;;;;;;35.30;31.50;;;23.10;99.90;;;;;;5115794;27;20460;-80
2023/06/07 10:07:21;;;;;;;29.53;26.50;;;23.10;99.90;;;;;;5112344;28;20507;-79
2023/06/07 10:09:51;;;;;;;30.20;26.67;;;22.90;99.90;;;;;;5125097;27;20434;-77
2023/06/07 10:12:23;;;;;;;29.27;25.40;;;22.80;99.90;;;;;;5113335;28;20516;-79
2023/06/07 10:14:51;;;;;;;29.23;25.27;;;22.80;99.90;;;;;;5118662;27;20461;-79
2023/06/07 10:17:21;;;;;;;27.57;24.73;;;22.80;99.90;;;;;;5113165;27;21016;-80
2023/06/07 10:19:51;;;;;;;27.00;23.17;;;22.60;99.90;;;;;;5113820;28;20455;-77
2023/06/07 10:22:22;;;;;;;17.93;16.03;;;22.60;99.90;;;;;;5130070;27;20444;-77
2023/06/07 10:25:09;;;;;;;16.77;15.07;;;22.40;99.90;;;;;;5109318;28;20538;-80
2023/06/07 10:28:13;;;;;;;12.73;11.43;;;22.30;99.90;;;;;;5106228;27;20571;-77
2023/06/07 10:30:43;;;;;;;14.90;12.20;;;22.20;99.90;;;;;;5068508;28;20455;-80
2023/06/07 10:33:10;;;;;;;12.07;10.87;;;22.00;99.90;;;;;;5085408;28;20451;-80
2023/06/07 10:35:37;;;;;;;10.63;9.03;;;21.80;99.90;;;;;;5110001;28;21031;-76
2023/06/07 10:38:03;;;;;;;8.00;7.20;;;21.70;99.90;;;;;;5100334;28;20487;-76
2023/06/07 10:40:31;;;;;;;9.73;8.40;;;21.50;99.90;;;;;;5090822;27;20960;-79
2023/06/07 10:42:57;;;;;;;8.50;7.17;;;21.50;99.90;;;;;;5116571;27;20667;-76
2023/06/07 10:45:24;;;;;;;8.00;7.20;;;21.50;99.90;;;;;;5124258;27;20979;-76
2023/06/07 10:47:50;;;;;;;8.70;7.80;;;21.60;99.90;;;;;;5109631;28;20415;-77
2023/06/07 10:50:27;;;;;;;8.87;7.37;;;21.60;99.90;;;;;;5109800;28;21020;-76
2023/06/07 10:53:02;;;;;;;9.13;6.80;;;21.70;99.90;;;;;;5101277;28;20442;-78
2023/06/07 10:55:31;;;;;;;7.50;5.80;;;21.80;99.90;;;;;;5104627;28;20496;-79
2023/06/07 10:58:00;;;;;;;6.33;5.73;;;21.90;99.90;;;;;;5090916;28;20541;-76
2023/06/07 11:00:31;;;;;;;10.03;6.30;;;22.00;99.90;;;;;;5102628;28;20582;-77
2023/06/07 11:03:10;;;;;;;10.50;6.47;;;22.00;99.90;;;;;;5089812;28;20437;-79
2023/06/07 11:05:55;;;;;;;7.60;6.27;;;22.10;99.90;;;;;;5084754;28;20491;-80
2023/06/07 11:08:26;;;;;;;6.80;6.07;;;22.10;99.90;;;;;;5112572;27;20427;-77
2023/06/07 11:10:58;;;;;;;8.33;7.00;;;22.20;99.90;;;;;;5094482;28;20465;-79
2023/06/07 11:13:25;;;;;;;8.20;7.17;;;22.20;99.90;;;;;;5109883;28;20432;-76
2023/06/07 11:15:51;;;;;;;9.20;8.20;;;22.20;99.90;;;;;;5103897;28;22042;-79
2023/06/07 11:18:16;;;;;;;10.13;9.07;;;22.30;99.90;;;;;;5110578;28;20585;-78
2023/06/07 11:20:45;;;;;;;9.90;8.90;;;22.30;99.90;;;;;;5109408;28;20235;-76
2023/06/07 11:23:23;;;;;;;9.20;8.30;;;22.30;99.90;;;;;;5110799;28;20183;-79
2023/06/07 11:25:51;;;;;;;7.63;6.93;;;22.40;99.90;;;;;;5088775;28;20842;-79
2023/06/07 11:28:24;;;;;;;10.00;8.77;;;22.50;99.90;;;;;;5089545;28;20455;-77
2023/06/07 11:30:51;;;;;;;9.47;7.87;;;22.50;99.90;;;;;;5099277;28;20448;-76
2023/06/07 11:33:21;;;;;;;9.27;8.37;;;22.50;99.90;;;;;;5102000;28;20449;-75
2023/06/07 11:35:48;;;;;;;9.00;8.10;;;22.60;99.90;;;;;;5106840;28;20471;-79
2023/06/07 11:38:14;;;;;;;8.70;7.90;;;22.60;99.90;;;;;;5125482;28;20892;-81
2023/06/07 11:40:40;;;;;;;12.27;8.37;;;22.70;99.90;;;;;;5118693;27;20866;-79
2023/06/07 11:43:10;;;;;;;10.40;9.40;;;22.70;99.90;;;;;;5105113;28;20417;-76
2023/06/07 11:45:36;;;;;;;11.40;10.20;;;22.70;99.90;;;;;;5111444;28;20438;-76
2023/06/07 11:48:02;;;;;;;12.03;10.50;;;22.80;99.90;;;;;;5107048;28;20408;-76
2023/06/07 11:50:28;;;;;;;15.53;13.90;;;22.80;99.90;;;;;;5085250;28;20451;-80
2023/06/07 11:52:54;;;;;;;16.10;14.50;;;22.80;99.90;;;;;;5102802;28;20420;-77
2023/06/07 11:55:20;;;;;;;18.70;16.77;;;22.90;99.90;;;;;;5088210;28;20204;-79
2023/06/07 11:57:48;;;;;;;13.73;12.37;;;22.90;99.90;;;;;;5110878;28;21056;-76
2023/06/07 12:00:19;;;;;;;17.70;14.73;;;23.00;99.90;;;;;;5110431;28;20447;-77
2023/06/07 12:02:45;;;;;;;18.27;16.47;;;23.00;99.90;;;;;;5086050;28;20460;-76
2023/06/07 12:05:11;;;;;;;18.33;15.93;;;23.10;99.90;;;;;;5085478;28;20508;-78
2023/06/07 12:07:40;;;;;;;15.87;14.27;;;23.10;99.90;;;;;;5102492;28;20460;-79
2023/06/07 12:10:09;;;;;;;17.30;15.50;;;23.10;99.90;;;;;;5080537;28;20529;-79
2023/06/07 12:12:35;;;;;;;18.53;16.40;;;23.10;99.90;;;;;;5109017;28;20434;-77
2023/06/07 12:15:02;;;;;;;18.93;16.67;;;23.00;99.90;;;;;;5107365;28;20493;-79
2023/06/07 12:17:34;;;;;;;20.73;17.00;;;23.00;99.90;;;;;;5107924;28;20469;-79
2023/06/07 12:20:14;;;;;;;20.43;18.27;;;22.90;99.90;;;;;;5089234;28;20492;-77
2023/06/07 12:22:40;;;;;;;23.53;19.30;;;22.90;99.90;;;;;;5101216;28;20524;-80
2023/06/07 12:25:18;;;;;;;21.30;17.83;;;22.80;99.90;;;;;;5093276;28;20857;-79
2023/06/07 12:27:47;;;;;;;16.63;15.00;;;22.90;99.90;;;;;;5114212;27;20937;-77
2023/06/07 12:30:13;;;;;;;16.20;13.60;;;22.90;99.90;;;;;;5111745;28;20452;-78
2023/06/07 12:32:39;;;;;;;15.47;13.87;;;23.00;99.90;;;;;;5112576;28;20479;-77
2023/06/07 12:35:10;;;;;;;17.67;15.77;;;23.10;99.90;;;;;;5103629;27;20998;-79
2023/06/07 12:37:36;;;;;;;17.53;15.67;;;23.20;99.90;;;;;;5109041;28;20215;-79
2023/06/07 12:40:07;;;;;;;16.27;13.23;;;23.30;99.90;;;;;;5113143;28;20461;-77